Time;durP1;ratioP1;P1;durP2;ratioP2;P2;SDS_P1;SDS_P2;PMS_P1;PMS_P2;Temp;Humidity;BMP_temperature;BMP_pressure;BME280_temperature;BME280_humidity;BME280_pressure;Samples;Min_cycle;Max_cycle;Signal;HPM_P1;HPM_P2
2020/12/03 00:00:53;;;;;;;32.67;19.50;;;2.30;99.90;;;;;;5076478;28;20607;-60
2020/12/03 00:03:24;;;;;;;37.40;18.85;;;2.40;99.90;;;;;;5081094;28;20036;-60
2020/12/03 00:05:58;;;;;;;34.30;18.27;;;2.40;99.90;;;;;;5093601;28;20032;-67
2020/12/03 00:08:25;;;;;;;33.50;18.42;;;2.40;99.90;;;;;;5075959;28;20377;-61
2020/12/03 00:10:51;;;;;;;35.53;20.08;;;2.20;99.90;;;;;;5074817;28;20473;-61
2020/12/03 00:13:16;;;;;;;34.72;18.92;;;2.30;99.90;;;;;;5075702;28;20035;-61
2020/12/03 00:15:42;;;;;;;37.17;18.23;;;2.40;99.90;;;;;;5075446;28;20506;-60
2020/12/03 00:18:08;;;;;;;36.13;18.60;;;2.40;99.90;;;;;;5074797;28;20028;-60
2020/12/03 00:20:35;;;;;;;38.58;21.42;;;2.20;99.90;;;;;;5075623;28;20081;-62
2020/12/03 00:23:02;;;;;;;39.85;21.13;;;2.00;99.90;;;;;;5093100;28;20024;-60
2020/12/03 00:25:28;;;;;;;39.95;22.38;;;2.00;99.90;;;;;;5075913;28;20039;-60
2020/12/03 00:27:55;;;;;;;37.40;20.92;;;2.10;99.90;;;;;;5093641;28;20024;-60
2020/12/03 00:30:21;;;;;;;39.38;21.13;;;2.30;99.90;;;;;;5075511;28;20021;-61
2020/12/03 00:32:49;;;;;;;39.70;21.55;;;2.10;99.90;;;;;;5075315;28;20032;-60
2020/12/03 00:35:16;;;;;;;44.63;20.80;;;2.20;99.90;;;;;;5074789;28;20058;-60
2020/12/03 00:37:42;;;;;;;44.03;23.13;;;2.20;99.90;;;;;;5075269;28;20381;-60
2020/12/03 00:40:08;;;;;;;39.88;21.83;;;2.10;99.90;;;;;;5074523;28;20028;-60
2020/12/03 00:42:34;;;;;;;38.55;20.13;;;2.00;99.90;;;;;;5092641;28;20060;-59
2020/12/03 00:45:00;;;;;;;36.30;20.25;;;2.00;99.90;;;;;;5074781;28;20431;-61
2020/12/03 00:47:26;;;;;;;37.70;18.58;;;2.00;99.90;;;;;;5093251;28;20385;-61
2020/12/03 00:49:52;;;;;;;30.65;17.20;;;2.10;99.90;;;;;;5075079;28;20020;-69
2020/12/03 00:52:18;;;;;;;34.25;18.23;;;2.20;99.90;;;;;;5075380;28;20024;-61
2020/12/03 00:54:44;;;;;;;34.28;19.17;;;2.20;99.90;;;;;;5076330;28;20036;-65
2020/12/03 00:57:10;;;;;;;36.63;18.70;;;2.00;99.90;;;;;;5075117;28;20020;-60
2020/12/03 00:59:37;;;;;;;35.38;19.85;;;2.00;99.90;;;;;;5076592;28;20035;-61
2020/12/03 01:02:07;;;;;;;33.17;18.27;;;2.00;99.90;;;;;;5075454;28;20127;-61
2020/12/03 01:04:35;;;;;;;36.22;19.02;;;2.10;99.90;;;;;;5076111;28;20035;-62
2020/12/03 01:07:01;;;;;;;34.58;18.10;;;2.10;99.90;;;;;;5075876;28;20027;-61
2020/12/03 01:09:26;;;;;;;41.60;20.98;;;2.10;99.90;;;;;;5077772;28;20031;-60
2020/12/03 01:11:53;;;;;;;36.13;19.50;;;2.00;99.90;;;;;;5081045;28;20047;-60
2020/12/03 01:14:18;;;;;;;32.15;17.73;;;2.00;99.90;;;;;;5098923;28;20028;-64
2020/12/03 01:16:45;;;;;;;33.58;17.90;;;2.10;99.90;;;;;;5097707;28;20024;-61
2020/12/03 01:19:11;;;;;;;32.85;18.33;;;2.10;99.90;;;;;;5097037;28;20552;-60
2020/12/03 01:21:36;;;;;;;37.95;19.25;;;2.10;99.90;;;;;;5078482;28;20119;-62
2020/12/03 01:24:03;;;;;;;37.90;20.27;;;2.00;99.90;;;;;;5053739;28;20525;-61
2020/12/03 01:26:29;;;;;;;35.97;19.20;;;1.80;99.90;;;;;;5053926;28;20043;-60
2020/12/03 01:28:54;;;;;;;32.28;16.33;;;1.90;99.90;;;;;;5053903;28;20033;-64
2020/12/03 01:31:20;;;;;;;33.53;18.50;;;2.00;99.90;;;;;;5069120;28;20033;-61
2020/12/03 01:33:45;;;;;;;33.00;18.08;;;1.90;99.90;;;;;;5054408;28;20405;-61
2020/12/03 01:36:13;;;;;;;33.97;19.05;;;2.00;99.90;;;;;;5036854;28;20025;-61
2020/12/03 01:38:38;;;;;;;40.28;20.27;;;1.70;99.90;;;;;;5037581;28;20037;-60
2020/12/03 01:41:04;;;;;;;40.78;18.67;;;1.70;99.90;;;;;;5036381;28;20040;-61
2020/12/03 01:43:30;;;;;;;37.33;19.90;;;1.80;99.90;;;;;;5037552;28;20197;-61
2020/12/03 01:46:00;;;;;;;39.22;20.40;;;1.70;99.90;;;;;;5037032;28;20021;-63
2020/12/03 01:48:48;;;;;;;37.75;20.92;;;1.80;99.90;;;;;;5038047;28;20074;-63
2020/12/03 01:51:32;;;;;;;37.00;19.67;;;1.90;99.90;;;;;;5055360;28;20036;-61
2020/12/03 01:54:00;;;;;;;38.33;20.55;;;1.80;99.90;;;;;;5040748;28;20021;-62
2020/12/03 01:56:54;;;;;;;38.92;20.15;;;1.90;99.90;;;;;;5079405;28;20032;-61
2020/12/03 01:59:22;;;;;;;35.20;17.85;;;2.00;99.90;;;;;;5080215;28;20032;-60
2020/12/03 02:01:48;;;;;;;35.20;17.88;;;1.80;99.90;;;;;;5099371;28;20031;-61
2020/12/03 02:04:14;;;;;;;38.13;21.42;;;2.00;99.90;;;;;;5116783;28;20019;-60
2020/12/03 02:06:42;;;;;;;36.08;18.75;;;2.10;99.90;;;;;;5098801;28;20358;-64
2020/12/03 02:09:12;;;;;;;39.80;19.80;;;2.20;99.90;;;;;;5098353;28;20032;-60
2020/12/03 02:11:38;;;;;;;35.70;18.58;;;2.20;99.90;;;;;;5099188;28;20039;-61
2020/12/03 02:14:10;;;;;;;34.88;17.80;;;2.00;99.90;;;;;;5098954;28;20024;-61
2020/12/03 02:16:39;;;;;;;33.28;19.50;;;2.10;99.90;;;;;;5099037;28;20392;-61
2020/12/03 02:19:21;;;;;;;39.92;20.02;;;2.00;99.90;;;;;;5116372;28;20028;-61
2020/12/03 02:22:03;;;;;;;34.20;18.83;;;1.90;99.90;;;;;;5115711;28;20046;-60
2020/12/03 02:24:34;;;;;;;36.70;18.33;;;2.00;99.90;;;;;;5115957;28;20028;-62
2020/12/03 02:27:01;;;;;;;38.17;19.25;;;2.10;99.90;;;;;;5097206;28;20473;-62
2020/12/03 02:29:27;;;;;;;35.15;17.02;;;2.10;99.90;;;;;;5098918;28;20028;-61
2020/12/03 02:31:53;;;;;;;35.15;17.63;;;2.10;99.90;;;;;;5100930;28;20028;-69
2020/12/03 02:34:19;;;;;;;36.10;19.25;;;2.10;99.90;;;;;;5100209;28;20490;-60
2020/12/03 02:36:51;;;;;;;33.47;17.20;;;2.00;99.90;;;;;;5118372;28;20028;-61
2020/12/03 02:39:17;;;;;;;37.63;16.67;;;1.90;99.90;;;;;;5099605;28;20484;-61
2020/12/03 02:41:42;;;;;;;36.28;18.98;;;2.00;99.90;;;;;;5099490;28;20048;-58
2020/12/03 02:44:08;;;;;;;37.97;18.77;;;1.90;99.90;;;;;;5099227;28;20028;-63
2020/12/03 02:46:34;;;;;;;34.45;16.80;;;2.00;99.90;;;;;;5099711;28;20115;-61
2020/12/03 02:48:59;;;;;;;31.35;15.82;;;2.10;99.90;;;;;;5099187;28;20059;-63
2020/12/03 02:51:25;;;;;;;36.25;17.15;;;2.00;99.90;;;;;;5100783;28;20028;-60
2020/12/03 02:53:51;;;;;;;35.45;18.08;;;2.00;99.90;;;;;;5100145;28;20453;-60
2020/12/03 02:56:16;;;;;;;32.47;16.52;;;1.90;99.90;;;;;;5116214;28;20024;-62
2020/12/03 02:58:42;;;;;;;32.88;17.73;;;1.80;99.90;;;;;;5117435;28;20104;-64
2020/12/03 03:01:08;;;;;;;32.78;16.90;;;1.70;99.90;;;;;;5116362;28;20020;-60
2020/12/03 03:03:33;;;;;;;32.45;16.77;;;1.90;99.90;;;;;;5117806;28;20038;-60
2020/12/03 03:06:00;;;;;;;32.47;17.58;;;1.80;99.90;;;;;;5116717;28;20027;-62
2020/12/03 03:08:25;;;;;;;32.40;17.25;;;1.90;99.90;;;;;;5098133;28;20057;-61
2020/12/03 03:10:51;;;;;;;30.42;16.08;;;1.90;99.90;;;;;;5097209;28;20032;-60
2020/12/03 03:13:17;;;;;;;28.10;14.98;;;2.00;99.90;;;;;;5096322;28;20032;-63
2020/12/03 03:15:43;;;;;;;32.15;17.08;;;2.00;99.90;;;;;;5116877;28;20039;-60
2020/12/03 03:18:09;;;;;;;30.27;16.30;;;1.80;99.90;;;;;;5098354;28;20051;-63
2020/12/03 03:20:35;;;;;;;29.50;16.05;;;1.90;99.90;;;;;;5098784;28;20385;-60
2020/12/03 03:23:01;;;;;;;33.60;16.70;;;1.90;99.90;;;;;;5097414;28;20032;-66
2020/12/03 03:25:27;;;;;;;32.38;16.33;;;1.80;99.90;;;;;;5115755;28;20358;-61
2020/12/03 03:27:53;;;;;;;29.48;16.15;;;1.90;99.90;;;;;;5096963;28;20073;-61
2020/12/03 03:30:20;;;;;;;32.72;17.13;;;2.00;99.90;;;;;;5087497;28;20456;-61
2020/12/03 03:32:45;;;;;;;31.23;15.60;;;1.90;99.90;;;;;;5076694;28;20028;-60
2020/12/03 03:35:17;;;;;;;28.88;16.02;;;2.00;99.90;;;;;;5077146;28;20035;-60
2020/12/03 03:37:43;;;;;;;27.23;14.98;;;1.90;99.90;;;;;;5077251;28;20063;-60
2020/12/03 03:40:09;;;;;;;27.65;14.50;;;1.80;99.90;;;;;;5094050;28;20038;-63
2020/12/03 03:42:35;;;;;;;27.65;15.63;;;1.80;99.90;;;;;;5072349;28;20056;-60
2020/12/03 03:45:02;;;;;;;30.45;15.18;;;1.80;99.90;;;;;;5072804;28;20024;-60
2020/12/03 03:47:27;;;;;;;31.92;15.88;;;1.80;99.90;;;;;;5072835;28;20073;-60
2020/12/03 03:49:53;;;;;;;31.45;16.70;;;1.60;99.90;;;;;;5074265;28;20029;-60
2020/12/03 03:52:19;;;;;;;31.60;16.35;;;1.50;99.90;;;;;;5073159;28;20056;-60
2020/12/03 03:54:44;;;;;;;31.90;15.10;;;1.70;99.90;;;;;;5074244;28;20475;-61
2020/12/03 03:57:10;;;;;;;31.45;16.17;;;1.80;99.90;;;;;;5073445;28;20046;-60
2020/12/03 03:59:36;;;;;;;31.23;15.63;;;1.90;99.90;;;;;;5076135;28;20024;-60
2020/12/03 04:02:01;;;;;;;29.80;15.48;;;2.00;99.90;;;;;;5092980;28;20028;-64
2020/12/03 04:04:27;;;;;;;31.95;16.15;;;2.00;99.90;;;;;;5092520;28;20028;-63
2020/12/03 04:06:53;;;;;;;27.10;14.98;;;2.00;99.90;;;;;;5093932;28;20042;-60
2020/12/03 04:09:18;;;;;;;30.92;15.52;;;1.90;99.90;;;;;;5092492;28;20028;-60
2020/12/03 04:11:44;;;;;;;35.55;17.42;;;2.00;99.90;;;;;;5093870;28;20040;-61
2020/12/03 04:14:11;;;;;;;35.47;18.45;;;1.90;99.90;;;;;;5093583;28;20080;-66
2020/12/03 04:16:37;;;;;;;30.65;16.20;;;1.80;99.90;;;;;;5073170;28;20045;-61
2020/12/03 04:19:04;;;;;;;29.15;15.50;;;1.80;99.90;;;;;;5072480;28;20047;-60
2020/12/03 04:21:29;;;;;;;31.02;16.42;;;1.80;99.90;;;;;;5055398;28;20093;-61
2020/12/03 04:23:55;;;;;;;35.00;17.08;;;1.90;99.90;;;;;;5054990;28;20127;-60
2020/12/03 04:26:21;;;;;;;30.00;17.67;;;1.90;99.90;;;;;;5054098;28;20121;-60
2020/12/03 04:28:46;;;;;;;35.15;18.20;;;2.10;99.90;;;;;;5072000;28;20083;-61
2020/12/03 04:31:12;;;;;;;31.85;17.02;;;1.90;99.90;;;;;;5054806;28;20484;-59
2020/12/03 04:33:38;;;;;;;31.08;17.05;;;1.90;99.90;;;;;;5035179;28;20032;-64
2020/12/03 04:36:05;;;;;;;37.67;17.95;;;1.80;99.90;;;;;;5036363;28;20394;-60
2020/12/03 04:38:31;;;;;;;34.47;17.10;;;1.80;99.90;;;;;;5035636;28;20516;-60
2020/12/03 04:40:58;;;;;;;34.05;17.05;;;1.80;99.90;;;;;;5052099;28;20029;-63
2020/12/03 04:43:43;;;;;;;33.40;16.58;;;1.90;99.90;;;;;;5033891;28;20063;-61
2020/12/03 04:46:36;;;;;;;35.63;17.52;;;1.80;99.90;;;;;;5051467;28;20033;-64
2020/12/03 04:49:23;;;;;;;39.47;18.13;;;1.80;99.90;;;;;;5072195;28;20032;-60
2020/12/03 04:52:17;;;;;;;33.53;16.90;;;1.60;99.90;;;;;;5072213;28;20030;-63
2020/12/03 04:55:17;;;;;;;33.42;16.70;;;1.70;99.90;;;;;;5072312;28;20158;-61
2020/12/03 04:57:53;;;;;;;38.30;16.95;;;1.70;99.90;;;;;;5071872;28;20028;-60
2020/12/03 05:00:36;;;;;;;36.40;19.52;;;1.70;99.90;;;;;;5082203;28;20104;-60
2020/12/03 05:03:33;;;;;;;34.10;17.15;;;1.90;99.90;;;;;;5089797;28;20035;-61
2020/12/03 05:06:26;;;;;;;35.50;18.23;;;2.00;99.90;;;;;;5093131;28;20412;-62
2020/12/03 05:09:04;;;;;;;1150.10;163.48;;;2.00;99.90;;;;;;5092034;28;20119;-71
2020/12/03 05:11:41;;;;;;;104.13;33.63;;;2.80;99.90;;;;;;5090906;28;20111;-66
2020/12/03 05:14:37;;;;;;;68.65;29.63;;;3.50;99.90;;;;;;5091817;28;20046;-69
2020/12/03 05:17:40;;;;;;;47.80;21.02;;;4.10;99.90;;;;;;5075616;28;20082;-62
2020/12/03 05:20:23;;;;;;;37.72;18.55;;;3.50;99.90;;;;;;5091719;28;20036;-60
2020/12/03 05:22:58;;;;;;;35.30;16.40;;;2.60;99.90;;;;;;5092568;28;20028;-61
2020/12/03 05:25:25;;;;;;;35.65;17.48;;;2.50;99.90;;;;;;5092480;28;20029;-69
2020/12/03 05:27:58;;;;;;;31.38;17.33;;;2.40;99.90;;;;;;5092629;28;20101;-60
2020/12/03 05:30:26;;;;;;;36.83;17.63;;;2.40;99.90;;;;;;5081971;28;20036;-66
2020/12/03 05:32:52;;;;;;;34.25;17.60;;;2.20;99.90;;;;;;5071275;28;20495;-61
2020/12/03 05:35:18;;;;;;;35.10;17.77;;;2.20;99.90;;;;;;5070103;28;20021;-61
2020/12/03 05:37:45;;;;;;;30.45;16.00;;;2.20;99.90;;;;;;5071450;28;20604;-60
2020/12/03 05:40:22;;;;;;;30.73;17.05;;;2.10;99.90;;;;;;5071652;28;20078;-68
2020/12/03 05:42:49;;;;;;;30.50;15.48;;;2.20;99.90;;;;;;5080569;28;20075;-59
2020/12/03 05:45:29;;;;;;;34.75;17.52;;;2.20;99.90;;;;;;5092350;28;20028;-60
2020/12/03 05:47:57;;;;;;;30.35;15.80;;;2.20;99.90;;;;;;5093892;28;20027;-60
2020/12/03 05:50:36;;;;;;;30.10;15.90;;;2.10;99.90;;;;;;5076248;28;20529;-62
2020/12/03 05:53:20;;;;;;;30.98;17.13;;;2.10;99.90;;;;;;5094391;28;20070;-61
2020/12/03 05:55:48;;;;;;;28.50;15.63;;;2.10;99.90;;;;;;5096534;28;20028;-60
2020/12/03 05:58:17;;;;;;;34.22;17.17;;;2.00;99.90;;;;;;5078928;28;20028;-62
2020/12/03 06:00:43;;;;;;;32.50;15.30;;;2.10;99.90;;;;;;5092705;28;20518;-62
2020/12/03 06:03:59;;;;;;;36.42;18.38;;;2.20;99.90;;;;;;5117439;28;20080;-60
2020/12/03 06:06:48;;;;;;;30.08;16.85;;;2.20;99.90;;;;;;5017432;28;20376;-61
2020/12/03 06:09:24;;;;;;;30.65;16.08;;;2.20;99.90;;;;;;5113202;28;20043;-66
2020/12/03 06:12:38;;;;;;;34.47;17.55;;;2.30;99.90;;;;;;5099139;28;20043;-61
2020/12/03 06:15:30;;;;;;;29.23;15.07;;;2.20;99.90;;;;;;5027203;28;20040;-63
2020/12/03 06:17:56;;;;;;;;;;;2.20;99.90;;;;;;5099366;28;20023;-61
2020/12/03 06:20:45;;;;;;;26.23;14.02;;;2.10;99.90;;;;;;5097973;28;19930;-60
2020/12/03 06:23:39;;;;;;;27.85;15.45;;;2.20;99.90;;;;;;5099102;28;20057;-68
2020/12/03 06:26:08;;;;;;;29.70;14.93;;;2.10;99.90;;;;;;5116920;28;20027;-60
2020/12/03 06:28:46;;;;;;;27.80;14.63;;;2.10;99.90;;;;;;5098463;28;20027;-64
2020/12/03 06:31:18;;;;;;;32.42;17.10;;;2.20;99.90;;;;;;5098808;28;20023;-68
2020/12/03 06:33:49;;;;;;;25.95;14.55;;;2.20;99.90;;;;;;5098320;28;20027;-67
2020/12/03 06:36:18;;;;;;;25.20;15.35;;;2.10;99.90;;;;;;5116370;28;20027;-61
2020/12/03 06:39:24;;;;;;;26.58;14.90;;;2.10;99.90;;;;;;5116510;28;20529;-60
2020/12/03 06:42:26;;;;;;;29.88;15.05;;;2.00;99.90;;;;;;5115880;28;20028;-59
2020/12/03 06:45:04;;;;;;;28.33;14.77;;;2.10;99.90;;;;;;5097360;28;20024;-60
2020/12/03 06:47:48;;;;;;;28.20;15.23;;;2.20;99.90;;;;;;5097366;28;20399;-60
2020/12/03 06:50:52;;;;;;;33.13;15.30;;;2.20;99.90;;;;;;5097219;28;20024;-62
2020/12/03 06:53:36;;;;;;;25.38;13.77;;;2.30;99.90;;;;;;5096966;28;20031;-62
2020/12/03 06:56:17;;;;;;;27.05;13.65;;;2.20;99.90;;;;;;5097227;28;20065;-61
2020/12/03 06:59:01;;;;;;;23.80;13.15;;;2.20;99.90;;;;;;5097981;28;20028;-61
2020/12/03 07:01:42;;;;;;;26.83;15.63;;;2.10;99.90;;;;;;5096537;28;20474;-61
2020/12/03 07:04:43;;;;;;;22.13;13.48;;;2.10;99.90;;;;;;5077542;28;20066;-61
2020/12/03 07:07:32;;;;;;;22.42;13.23;;;2.10;99.90;;;;;;5076173;28;20036;-61
2020/12/03 07:10:24;;;;;;;23.98;13.20;;;2.10;99.90;;;;;;5054158;28;20037;-62
2020/12/03 07:13:04;;;;;;;28.30;15.18;;;2.20;99.90;;;;;;5013135;28;20498;-60
2020/12/03 07:15:52;;;;;;;27.60;13.40;;;2.20;99.90;;;;;;5035186;28;20082;-61
2020/12/03 07:18:44;;;;;;;26.52;14.63;;;2.30;99.90;;;;;;5035407;28;20025;-61
2020/12/03 07:21:16;;;;;;;24.73;13.30;;;2.40;99.90;;;;;;4986410;28;20044;-62
2020/12/03 07:23:59;;;;;;;25.63;14.27;;;2.30;99.90;;;;;;5052333;28;20105;-60
2020/12/03 07:26:51;;;;;;;26.40;15.00;;;2.20;99.90;;;;;;5035062;28;20029;-60
2020/12/03 07:29:24;;;;;;;22.85;13.25;;;2.20;99.90;;;;;;5013099;28;20037;-60
2020/12/03 07:31:54;;;;;;;23.85;13.18;;;2.40;99.90;;;;;;5072224;28;20594;-60
2020/12/03 07:34:45;;;;;;;24.27;14.52;;;2.20;99.90;;;;;;5071618;28;20428;-61
2020/12/03 07:37:18;;;;;;;22.88;13.10;;;2.20;99.90;;;;;;5056161;28;20478;-62
2020/12/03 07:39:49;;;;;;;21.95;12.88;;;2.20;99.90;;;;;;5072126;28;20036;-62
2020/12/03 07:42:20;;;;;;;26.00;14.05;;;2.00;99.90;;;;;;5114006;28;20063;-60
2020/12/03 07:44:50;;;;;;;;;;;2.10;99.90;;;;;;5097389;28;20028;-64
2020/12/03 07:47:33;;;;;;;28.85;13.45;;;2.10;99.90;;;;;;5096987;28;19909;-68
2020/12/03 07:50:08;;;;;;;24.35;14.30;;;2.10;99.90;;;;;;5115562;28;20023;-62
2020/12/03 07:52:38;;;;;;;23.35;14.02;;;2.30;99.90;;;;;;5096158;28;20055;-60
2020/12/03 07:55:23;;;;;;;22.40;13.85;;;2.30;99.90;;;;;;5114723;28;20508;-61
2020/12/03 07:57:54;;;;;;;25.02;15.32;;;2.10;99.90;;;;;;5097816;28;20049;-63
2020/12/03 08:00:44;;;;;;;25.67;13.85;;;2.20;99.90;;;;;;5095511;28;20035;-63
2020/12/03 08:03:39;;;;;;;25.60;15.93;;;2.20;99.90;;;;;;5096415;28;20468;-65
2020/12/03 08:06:43;;;;;;;26.75;15.60;;;2.30;99.90;;;;;;5096391;28;20097;-60
2020/12/03 08:09:23;;;;;;;27.88;14.98;;;2.30;99.90;;;;;;5014810;28;20443;-62
2020/12/03 08:12:07;;;;;;;29.42;16.33;;;2.40;99.90;;;;;;5105498;28;20184;-66
2020/12/03 08:14:41;;;;;;;29.52;14.88;;;2.20;99.90;;;;;;5095623;28;20182;-61
2020/12/03 08:17:18;;;;;;;35.22;17.58;;;2.10;99.90;;;;;;5096179;28;20027;-62
2020/12/03 08:20:06;;;;;;;28.15;16.58;;;2.10;99.90;;;;;;5114012;28;20024;-60
2020/12/03 08:22:48;;;;;;;28.23;15.90;;;2.10;99.90;;;;;;5098923;28;20480;-62
2020/12/03 08:25:19;;;;;;;25.27;13.95;;;2.30;99.90;;;;;;5095973;28;20448;-61
2020/12/03 08:28:02;;;;;;;31.38;18.85;;;2.30;99.90;;;;;;5114179;28;20027;-63
2020/12/03 08:30:50;;;;;;;24.33;14.55;;;2.20;99.90;;;;;;5095426;28;20026;-61
2020/12/03 08:33:27;;;;;;;28.35;16.25;;;2.20;99.90;;;;;;5096544;28;20027;-61
2020/12/03 08:36:01;;;;;;;28.85;16.63;;;2.20;99.90;;;;;;5114850;28;20054;-64
2020/12/03 08:38:31;;;;;;;27.80;16.48;;;2.30;99.90;;;;;;5096955;28;20019;-64
2020/12/03 08:41:01;;;;;;;29.25;17.25;;;2.40;99.90;;;;;;5097010;28;20024;-62
2020/12/03 08:43:28;;;;;;;28.90;17.60;;;2.50;99.90;;;;;;5094501;28;20060;-65
2020/12/03 08:48:29;;;;;;;30.52;16.90;;;2.50;99.90;;;;;;5113649;28;20031;-61
2020/12/03 08:51:08;;;;;;;25.88;15.77;;;2.60;99.90;;;;;;5095955;28;20028;-60
2020/12/03 08:53:35;;;;;;;36.67;18.20;;;2.60;99.90;;;;;;5095322;28;20028;-67
2020/12/03 08:56:11;;;;;;;30.60;16.95;;;4.10;99.90;;;;;;5096867;28;20023;-60
2020/12/03 08:58:41;;;;;;;27.92;17.10;;;4.30;99.90;;;;;;5096585;28;20024;-60
2020/12/03 09:01:08;;;;;;;26.15;17.08;;;3.50;99.90;;;;;;5096585;28;20563;-62
2020/12/03 09:03:34;;;;;;;29.88;17.48;;;3.20;99.90;;;;;;5063342;28;20115;-66
2020/12/03 09:06:00;;;;;;;29.38;16.77;;;3.00;99.90;;;;;;5115623;28;20046;-62
2020/12/03 09:08:27;;;;;;;28.75;17.55;;;2.90;99.90;;;;;;5085382;28;20020;-62
2020/12/03 09:10:57;;;;;;;32.05;17.63;;;2.90;99.90;;;;;;5095116;28;20028;-62
2020/12/03 09:13:23;;;;;;;31.83;17.80;;;2.90;99.90;;;;;;5076057;28;20051;-61
2020/12/03 09:15:52;;;;;;;27.27;16.30;;;2.90;99.90;;;;;;5076538;28;20469;-62
2020/12/03 09:18:18;;;;;;;28.95;17.02;;;2.90;99.90;;;;;;5076244;28;20028;-60
2020/12/03 09:20:45;;;;;;;30.70;17.80;;;2.90;99.90;;;;;;5075611;28;20142;-61
2020/12/03 09:23:31;;;;;;;29.10;17.17;;;2.90;99.90;;;;;;5076579;28;20085;-61
2020/12/03 09:25:57;;;;;;;26.55;17.48;;;2.90;99.90;;;;;;5076262;28;20025;-62
2020/12/03 09:28:23;;;;;;;27.88;16.42;;;2.80;99.90;;;;;;5086899;28;20114;-62
2020/12/03 09:30:50;;;;;;;31.80;17.73;;;3.00;99.90;;;;;;5098490;28;20047;-60
2020/12/03 09:33:20;;;;;;;27.92;17.05;;;3.00;99.90;;;;;;5085351;28;20119;-63
2020/12/03 09:35:48;;;;;;;29.60;16.55;;;2.90;99.90;;;;;;5082230;28;20515;-62
2020/12/03 09:38:16;;;;;;;31.27;17.52;;;2.90;99.90;;;;;;5093704;28;20061;-65
2020/12/03 09:40:49;;;;;;;32.67;18.45;;;3.00;99.90;;;;;;5107258;28;20042;-59
2020/12/03 09:43:21;;;;;;;29.67;17.60;;;3.00;99.90;;;;;;5084233;28;20497;-60
2020/12/03 09:45:53;;;;;;;29.25;17.48;;;2.90;99.90;;;;;;5117205;28;20020;-60
2020/12/03 09:48:20;;;;;;;29.58;17.42;;;3.00;99.90;;;;;;5099692;28;20483;-62
2020/12/03 09:50:48;;;;;;;28.70;17.40;;;2.90;99.90;;;;;;5100605;28;20024;-60
2020/12/03 09:53:16;;;;;;;37.97;20.20;;;3.00;99.90;;;;;;5096503;28;20106;-63
2020/12/03 09:55:42;;;;;;;28.48;18.50;;;3.10;99.90;;;;;;5107320;28;20069;-62
2020/12/03 09:58:08;;;;;;;33.50;18.85;;;3.00;99.90;;;;;;5085085;28;20085;-61
2020/12/03 10:00:40;;;;;;;31.10;17.75;;;3.10;99.90;;;;;;5099723;28;20028;-62
2020/12/03 10:03:20;;;;;;;31.15;18.10;;;3.10;99.90;;;;;;5105903;28;20033;-61
2020/12/03 10:06:01;;;;;;;29.98;16.13;;;3.20;99.90;;;;;;5086567;28;20050;-60
2020/12/03 10:09:03;;;;;;;31.05;17.98;;;3.30;99.90;;;;;;5080586;28;20045;-60
2020/12/03 10:11:35;;;;;;;28.35;16.45;;;3.20;99.90;;;;;;5013731;28;20138;-61
2020/12/03 10:14:37;;;;;;;33.05;17.33;;;3.20;99.90;;;;;;5091234;28;20031;-59
2020/12/03 10:17:10;;;;;;;31.13;17.73;;;3.20;99.90;;;;;;5112027;28;20123;-62
2020/12/03 10:19:42;;;;;;;31.65;16.48;;;3.30;99.90;;;;;;5098635;28;20028;-61
2020/12/03 10:22:23;;;;;;;27.02;16.10;;;3.30;99.90;;;;;;5098779;28;20398;-64
2020/12/03 10:24:55;;;;;;;24.73;15.57;;;3.30;99.90;;;;;;5098938;28;20067;-60
2020/12/03 10:27:30;;;;;;;26.83;15.20;;;3.30;99.90;;;;;;5116902;28;20027;-61
2020/12/03 10:30:06;;;;;;;21.98;13.95;;;3.30;99.90;;;;;;5098768;28;20027;-61
2020/12/03 10:32:34;;;;;;;25.73;15.23;;;3.40;99.90;;;;;;5097840;28;20043;-62
2020/12/03 10:35:04;;;;;;;26.20;15.88;;;3.40;99.90;;;;;;5098507;28;20118;-60
2020/12/03 10:37:45;;;;;;;26.48;13.43;;;3.50;99.90;;;;;;5097771;28;20042;-60
2020/12/03 10:40:17;;;;;;;27.37;16.17;;;3.50;99.90;;;;;;5098480;28;20024;-60
2020/12/03 10:43:00;;;;;;;28.80;14.63;;;3.50;99.90;;;;;;5096352;28;20289;-62
2020/12/03 10:45:32;;;;;;;23.20;14.60;;;3.60;99.90;;;;;;5098292;28;20511;-61
2020/12/03 10:48:06;;;;;;;23.83;13.70;;;3.50;99.90;;;;;;5098544;28;20517;-70
2020/12/03 10:50:47;;;;;;;22.70;13.48;;;3.40;99.90;;;;;;5116169;28;20484;-61
2020/12/03 10:53:24;;;;;;;25.67;15.07;;;3.30;99.90;;;;;;5116669;28;20031;-61
2020/12/03 10:56:02;;;;;;;24.02;14.68;;;3.40;99.90;;;;;;5116753;28;20103;-61
2020/12/03 10:58:37;;;;;;;28.90;15.10;;;3.30;99.90;;;;;;5116011;28;20031;-60
2020/12/03 11:01:10;;;;;;;22.58;14.73;;;3.30;99.90;;;;;;5116459;28;20525;-61
2020/12/03 11:03:39;;;;;;;24.02;15.35;;;3.40;99.90;;;;;;5097710;28;20023;-61
2020/12/03 11:06:06;;;;;;;22.42;14.02;;;3.40;99.90;;;;;;5097926;28;20038;-63
2020/12/03 11:08:37;;;;;;;21.88;14.25;;;3.40;99.90;;;;;;5096979;28;20020;-60
2020/12/03 11:11:04;;;;;;;25.35;14.93;;;3.50;99.90;;;;;;5097431;28;20024;-62
2020/12/03 11:13:31;;;;;;;28.95;14.52;;;3.40;99.90;;;;;;5115145;28;20040;-61
2020/12/03 11:15:59;;;;;;;23.55;14.38;;;3.30;99.90;;;;;;5097586;28;20023;-61
2020/12/03 11:18:26;;;;;;;26.00;14.80;;;3.20;99.90;;;;;;5098080;28;20020;-60
2020/12/03 11:21:03;;;;;;;30.70;16.73;;;3.30;99.90;;;;;;5097007;28;20026;-63
2020/12/03 11:23:31;;;;;;;23.67;14.27;;;3.30;99.90;;;;;;5097348;28;20030;-61
2020/12/03 11:26:04;;;;;;;28.13;15.70;;;3.30;99.90;;;;;;5098059;28;20034;-61
2020/12/03 11:28:39;;;;;;;28.08;16.23;;;3.20;99.90;;;;;;5114950;28;20102;-61
2020/12/03 11:31:08;;;;;;;27.23;16.65;;;3.30;99.90;;;;;;5096311;28;20031;-60
2020/12/03 11:33:42;;;;;;;26.90;15.10;;;3.40;99.90;;;;;;5114908;28;20038;-62
2020/12/03 11:36:13;;;;;;;25.85;15.35;;;3.30;99.90;;;;;;5097461;28;20028;-62
2020/12/03 11:38:41;;;;;;;28.15;17.35;;;3.40;99.90;;;;;;5114792;28;20062;-60
2020/12/03 11:41:15;;;;;;;29.70;17.33;;;3.50;99.90;;;;;;5114896;28;20023;-61
2020/12/03 11:44:03;;;;;;;27.15;16.98;;;3.60;99.90;;;;;;5094045;28;20055;-61
2020/12/03 11:49:27;;;;;;;26.83;15.77;;;3.70;99.90;;;;;;5112429;28;20076;-60
2020/12/03 11:51:53;;;;;;;29.55;16.88;;;3.60;99.90;;;;;;5115238;28;20053;-62
2020/12/03 11:54:29;;;;;;;26.65;15.80;;;3.60;99.90;;;;;;5114917;28;20030;-63
2020/12/03 11:56:56;;;;;;;28.45;15.77;;;3.60;99.90;;;;;;5115784;28;20361;-61
2020/12/03 11:59:30;;;;;;;24.67;15.55;;;3.60;99.90;;;;;;5096667;28;20452;-60
2020/12/03 12:02:07;;;;;;;26.35;16.20;;;3.70;99.90;;;;;;5096275;28;20503;-63
2020/12/03 12:09:49;;;;;;;27.35;15.88;;;3.70;99.90;;;;;;5097545;28;19915;-62
2020/12/03 12:12:17;;;;;;;25.48;15.65;;;3.80;99.90;;;;;;5097291;28;20074;-63
2020/12/03 12:14:43;;;;;;;32.55;16.70;;;3.90;99.90;;;;;;5114295;28;20388;-67
2020/12/03 12:17:09;;;;;;;28.75;15.63;;;3.80;99.90;;;;;;5114973;28;20026;-61
2020/12/03 12:19:36;;;;;;;30.92;15.63;;;3.70;99.90;;;;;;5096321;28;20023;-61
2020/12/03 12:22:04;;;;;;;25.90;14.63;;;3.60;99.90;;;;;;5115594;28;20035;-62
2020/12/03 12:24:39;;;;;;;24.95;14.38;;;3.80;99.90;;;;;;5114234;28;20038;-61
2020/12/03 12:27:05;;;;;;;23.60;14.00;;;3.80;99.90;;;;;;5096259;28;20028;-60
2020/12/03 12:29:32;;;;;;;23.67;14.48;;;3.80;99.90;;;;;;5092803;28;20024;-67
2020/12/03 12:31:57;;;;;;;25.15;14.48;;;3.90;99.90;;;;;;5076061;28;20101;-60
2020/12/03 12:34:23;;;;;;;26.70;15.93;;;3.80;99.90;;;;;;5076227;28;20362;-61
2020/12/03 12:36:49;;;;;;;25.50;15.43;;;3.90;99.90;;;;;;5093108;28;20028;-61
2020/12/03 12:39:15;;;;;;;25.92;14.88;;;4.00;99.90;;;;;;5092587;28;20024;-60
2020/12/03 12:41:40;;;;;;;23.75;14.15;;;3.90;99.90;;;;;;5074863;28;20048;-61
2020/12/03 12:44:06;;;;;;;24.13;13.90;;;4.00;99.90;;;;;;5090969;28;20174;-61
2020/12/03 12:46:32;;;;;;;22.77;13.75;;;4.00;99.90;;;;;;5090220;28;20526;-62
2020/12/03 12:48:57;;;;;;;22.67;13.40;;;4.10;99.90;;;;;;5072502;28;20550;-61
2020/12/03 12:51:23;;;;;;;23.40;14.57;;;4.10;99.90;;;;;;5072615;28;20114;-61
2020/12/03 12:53:49;;;;;;;22.30;13.80;;;4.10;99.90;;;;;;5072542;28;20104;-61
2020/12/03 12:56:14;;;;;;;21.52;12.93;;;4.10;99.90;;;;;;5093810;28;20471;-61
2020/12/03 12:58:40;;;;;;;17.85;11.20;;;4.00;99.90;;;;;;5074710;28;20503;-62
2020/12/03 13:01:06;;;;;;;23.85;12.15;;;4.10;99.90;;;;;;5091184;28;20116;-62
2020/12/03 13:03:32;;;;;;;18.67;11.98;;;4.00;99.90;;;;;;5113304;28;20038;-68
2020/12/03 13:05:59;;;;;;;19.08;13.13;;;4.10;99.90;;;;;;5095199;28;20362;-61
2020/12/03 13:08:26;;;;;;;22.30;12.35;;;4.00;99.90;;;;;;5095793;28;20028;-61
2020/12/03 13:10:52;;;;;;;20.30;11.18;;;4.00;99.90;;;;;;5093770;28;20256;-61
2020/12/03 13:13:19;;;;;;;23.80;10.73;;;4.10;99.90;;;;;;5095446;28;20027;-62
2020/12/03 13:15:46;;;;;;;18.35;10.07;;;4.10;99.90;;;;;;5095868;28;20031;-61